地図

経路データ

SID SEASON NUMBER BASIN SUBBASIN NAME ISO_TIME NATURE LAT LON WMO_WIND WMO_PRES WMO_AGENCY TRACK_TYPE DIST2LAND LANDFALL IFLAG USA_AGENCY USA_ATCF_ID USA_LAT USA_LON USA_RECORD USA_STATUS USA_WIND USA_PRES USA_SSHS USA_R34_NE USA_R34_SE USA_R34_SW USA_R34_NW USA_R50_NE USA_R50_SE USA_R50_SW USA_R50_NW USA_R64_NE USA_R64_SE USA_R64_SW USA_R64_NW USA_POCI USA_ROCI USA_RMW USA_EYE TOKYO_LAT TOKYO_LON TOKYO_GRADE TOKYO_WIND TOKYO_PRES TOKYO_R50_DIR TOKYO_R50_LONG TOKYO_R50_SHORT TOKYO_R30_DIR TOKYO_R30_LONG TOKYO_R30_SHORT TOKYO_LAND CMA_LAT CMA_LON CMA_CAT CMA_WIND CMA_PRES HKO_LAT HKO_LON HKO_CAT HKO_WIND HKO_PRES NEWDELHI_LAT NEWDELHI_LON NEWDELHI_GRADE NEWDELHI_WIND NEWDELHI_PRES NEWDELHI_CI NEWDELHI_DP NEWDELHI_POCI REUNION_LAT REUNION_LON REUNION_TYPE REUNION_WIND REUNION_PRES REUNION_TNUM REUNION_CI REUNION_RMW REUNION_R34_NE REUNION_R34_SE REUNION_R34_SW REUNION_R34_NW REUNION_R50_NE REUNION_R50_SE REUNION_R50_SW REUNION_R50_NW REUNION_R64_NE REUNION_R64_SE REUNION_R64_SW REUNION_R64_NW BOM_LAT BOM_LON BOM_TYPE BOM_WIND BOM_PRES BOM_TNUM BOM_CI BOM_RMW BOM_R34_NE BOM_R34_SE BOM_R34_SW BOM_R34_NW BOM_R50_NE BOM_R50_SE BOM_R50_SW BOM_R50_NW BOM_R64_NE BOM_R64_SE BOM_R64_SW BOM_R64_NW BOM_ROCI BOM_POCI BOM_EYE BOM_POS_METHOD BOM_PRES_METHOD NADI_LAT NADI_LON NADI_CAT NADI_WIND NADI_PRES WELLINGTON_LAT WELLINGTON_LON WELLINGTON_WIND WELLINGTON_PRES DS824_LAT DS824_LON DS824_STAGE DS824_WIND DS824_PRES TD9636_LAT TD9636_LON TD9636_STAGE TD9636_WIND TD9636_PRES TD9635_LAT TD9635_LON TD9635_WIND TD9635_PRES TD9635_ROCI NEUMANN_LAT NEUMANN_LON NEUMANN_CLASS NEUMANN_WIND NEUMANN_PRES MLC_LAT MLC_LON MLC_CLASS MLC_WIND MLC_PRES USA_GUST BOM_GUST BOM_GUST_PER REUNION_GUST REUNION_GUST_PER USA_SEAHGT USA_SEARAD_NE USA_SEARAD_SE USA_SEARAD_SW USA_SEARAD_NW STORM_SPEED STORM_DIR
1909095S19114 1909 23 SI WA NOT_NAMED 1909-04-04 12:00:00 NR -19.1000 114.200 main 285 285 __________O___ -1 -19.1000 114.200 7 0 0
1909095S19114 1909 23 SI WA NOT_NAMED 1909-04-04 15:00:00 NR -19.0999 114.213 main 285 285 __________P___ -1 -19.0999 114.213 7 1 153
1909095S19114 1909 23 SI WA NOT_NAMED 1909-04-04 18:00:00 NR -19.1499 114.211 main 285 268 __________P___ -1 -19.1499 114.211 7 2 193
1909095S19114 1909 23 SI WA NOT_NAMED 1909-04-04 21:00:00 NR -19.2999 114.179 main 268 249 __________P___ -1 -19.2999 114.179 7 5 193
1909095S19114 1909 23 SI WA NOT_NAMED 1909-04-05 00:00:00 NR -19.6000 114.100 main 249 210 __________O___ -1 -19.6000 114.100 7 8 194
1909095S19114 1909 23 SI WA NOT_NAMED 1909-04-05 03:00:00 NR -20.0799 113.969 main 200 135 __________P___ -1 -20.0799 113.969 7 11 194
1909095S19114 1909 23 SI WA NOT_NAMED 1909-04-05 06:00:00 NR -20.6878 113.815 main 135 73 __________P___ -1 -20.6878 113.815 7 13 192
1909095S19114 1909 23 SI WA NOT_NAMED 1909-04-05 09:00:00 NR -21.3518 113.678 main 63 32 __________P___ -1 -21.3518 113.678 7 13 189
1909095S19114 1909 23 SI WA NOT_NAMED 1909-04-05 12:00:00 NR -22.0000 113.600 main 32 20 __________O___ -1 -22.0000 113.600 7 11 187
1909095S19114 1909 23 SI WA NOT_NAMED 1909-04-05 15:00:00 NR -22.4707 113.537 main 15 10 __________P___ -1 -22.4707 113.537 7 9 182
1909095S19114 1909 23 SI WA NOT_NAMED 1909-04-05 18:00:00 NR -22.9229 113.551 main 20 10 __________P___ -1 -22.9229 113.551 7 10 171
1909095S19114 1909 23 SI WA NOT_NAMED 1909-04-05 21:00:00 NR -23.4137 113.689 main 10 0 __________P___ -1 -23.4137 113.689 7 12 159
1909095S19114 1909 23 SI WA NOT_NAMED 1909-04-06 00:00:00 NR -24.0000 114.000 main 0 0 __________O___ -1 -24.0000 114.000 7 16 151
1909095S19114 1909 23 SI WA NOT_NAMED 1909-04-06 03:00:00 NR -24.7783 114.506 main 0 0 __________P___ -1 -24.7783 114.506 7 20 147
1909095S19114 1909 23 SI WA NOT_NAMED 1909-04-06 06:00:00 NR -25.6480 115.192 main 0 0 __________P___ -1 -25.6480 115.192 7 22 143
1909095S19114 1909 23 SI WA NOT_NAMED 1909-04-06 09:00:00 NR -26.5435 116.007 main 0 0 __________P___ -1 -26.5435 116.007 7 23 139
1909095S19114 1909 23 SI WA NOT_NAMED 1909-04-06 12:00:00 NR -27.4000 116.900 main 0 0 __________O___ -1 -27.4000 116.900 7 23 135
1909095S19114 1909 23 SI WA NOT_NAMED 1909-04-06 15:00:00 NR -28.1686 117.824 main 0 0 __________P___ -1 -28.1686 117.824 7 22 132
1909095S19114 1909 23 SI WA NOT_NAMED 1909-04-06 18:00:00 NR -28.8590 118.767 main 0 0 __________P___ -1 -28.8590 118.767 7 21 129
1909095S19114 1909 23 SI WA NOT_NAMED 1909-04-06 21:00:00 NR -29.4950 119.727 main 0 0 __________P___ -1 -29.4950 119.727 7 21 126
1909095S19114 1909 23 SI WA NOT_NAMED 1909-04-07 00:00:00 NR -30.1000 120.700 main 0 __________O___ -1 -30.1000 120.700 7 21 126

IBTrACS Databaseについて

本データベースは、米国NOAAが公開する1842年以降の世界の熱帯低気圧のベストトラックデータアーカイブInternational Best Track Archive for Climate Stewardship (IBTrACS)を、ウェブで閲覧しやすい形式に変換したものです。

最終更新日:2021-10-21